createdAt,value
2019-02-18T00:00:07.601Z,0.23
2019-02-18T00:01:07.568Z,0.24
2019-02-18T00:02:07.539Z,0.23
2019-02-18T00:03:07.504Z,0.32
2019-02-18T00:04:07.468Z,0.29
2019-02-18T00:05:07.439Z,0.44
2019-02-18T00:06:07.408Z,0.44
2019-02-18T00:07:14.119Z,0.51
2019-02-18T00:08:07.337Z,0.36
2019-02-18T00:09:07.306Z,0.57
2019-02-18T00:10:07.270Z,0.39
2019-02-18T00:11:07.236Z,0.44
2019-02-18T00:12:07.204Z,0.33
2019-02-18T00:13:07.175Z,0.24
2019-02-18T00:14:07.138Z,0.17
2019-02-18T00:15:07.107Z,0.03
2019-02-18T00:16:07.071Z,-0.08
2019-02-18T00:17:07.039Z,-0.08
2019-02-18T00:18:07.008Z,-0.21
2019-02-18T00:19:06.974Z,-0.25
2019-02-18T00:20:06.938Z,-0.25
2019-02-18T00:21:06.908Z,-0.25
2019-02-18T00:22:06.872Z,-0.23
2019-02-18T00:23:06.840Z,-0.26
2019-02-18T00:24:06.810Z,-0.21
2019-02-18T00:25:06.773Z,-0.19
2019-02-18T00:26:06.741Z,-0.14
2019-02-18T00:27:06.711Z,-0.01
2019-02-18T00:28:06.675Z,-0.04
2019-02-18T00:29:06.646Z,-0.07
2019-02-18T00:30:06.610Z,-0.08
2019-02-18T00:31:06.576Z,-0.16
2019-02-18T00:32:06.542Z,-0.23
2019-02-18T00:33:06.509Z,-0.29
2019-02-18T00:34:06.478Z,-0.40
2019-02-18T00:35:06.443Z,-0.37
2019-02-18T00:36:06.408Z,-0.54
2019-02-18T00:37:06.381Z,-0.55
2019-02-18T00:38:06.343Z,-0.60
2019-02-18T00:39:06.310Z,-0.55
2019-02-18T00:40:06.276Z,-0.72
2019-02-18T00:41:06.244Z,-0.72
2019-02-18T00:42:06.211Z,-0.70
2019-02-18T00:43:06.178Z,-0.70
2019-02-18T00:44:06.144Z,-0.65
2019-02-18T00:45:06.112Z,-0.73
2019-02-18T00:46:06.081Z,-0.76
2019-02-18T00:47:06.045Z,-0.70
2019-02-18T00:48:06.012Z,-0.58
2019-02-18T00:49:05.997Z,-0.60
2019-02-18T00:50:05.945Z,-0.55
2019-02-18T00:51:05.912Z,-0.52
2019-02-18T00:52:05.878Z,-0.42
2019-02-18T00:53:05.851Z,-0.34
2019-02-18T00:54:05.815Z,-0.26
2019-02-18T00:55:05.781Z,-0.29
2019-02-18T00:56:05.746Z,-0.25
2019-02-18T00:57:05.712Z,-0.28
2019-02-18T00:58:05.680Z,-0.36
2019-02-18T00:59:05.647Z,-0.39
2019-02-18T01:00:05.611Z,-0.51
2019-02-18T01:01:05.583Z,-0.52
2019-02-18T01:02:05.545Z,-0.64
2019-02-18T01:03:05.513Z,-0.67
2019-02-18T01:04:05.479Z,-0.73
2019-02-18T01:05:05.449Z,-0.80
2019-02-18T01:06:05.412Z,-0.89
2019-02-18T01:07:05.380Z,-0.91
2019-02-18T01:08:05.344Z,-0.83
2019-02-18T01:09:05.325Z,-0.92
2019-02-18T01:10:05.279Z,-0.73
2019-02-18T01:11:05.253Z,-0.61
2019-02-18T01:12:05.219Z,-0.75
2019-02-18T01:13:05.180Z,-0.64
2019-02-18T01:14:05.150Z,-0.69
2019-02-18T01:15:05.117Z,-0.70
2019-02-18T01:16:05.081Z,-0.73
2019-02-18T01:17:05.065Z,-0.76
2019-02-18T01:18:05.014Z,-0.89
2019-02-18T01:19:04.979Z,-0.91
2019-02-18T01:20:04.945Z,-0.89
2019-02-18T01:21:04.913Z,-0.92
2019-02-18T01:22:04.878Z,-0.94
2019-02-18T01:23:04.847Z,-1.01
2019-02-18T01:24:04.811Z,-1.02
2019-02-18T01:25:04.779Z,-0.97
2019-02-18T01:26:04.760Z,-0.98
2019-02-18T01:27:04.712Z,-0.80
2019-02-18T01:28:04.677Z,-0.91
2019-02-18T01:29:04.646Z,-0.99
2019-02-18T01:30:04.611Z,-1.07
2019-02-18T01:31:04.579Z,-1.09
2019-02-18T01:32:04.544Z,-0.99
2019-02-18T01:33:04.511Z,-1.04
2019-02-18T01:34:04.477Z,-0.94
2019-02-18T01:35:04.445Z,-0.97
2019-02-18T01:36:04.412Z,-0.92
2019-02-18T01:37:04.380Z,-0.89
2019-02-18T01:38:04.344Z,-0.76
2019-02-18T01:39:04.310Z,-0.67
2019-02-18T01:40:04.280Z,-0.57
2019-02-18T01:41:04.264Z,-0.57
2019-02-18T01:42:04.219Z,-0.57
2019-02-18T01:43:04.176Z,-0.62
2019-02-18T01:44:04.145Z,-0.61
2019-02-18T01:45:04.111Z,-0.67
2019-02-18T01:46:04.076Z,-0.70
2019-02-18T01:47:04.041Z,-0.60
2019-02-18T01:48:04.009Z,-0.55
2019-02-18T01:49:03.973Z,-0.67
2019-02-18T01:50:03.942Z,-0.72
2019-02-18T01:51:03.909Z,-0.64
2019-02-18T01:52:03.879Z,-0.75
2019-02-18T01:53:03.839Z,-0.79
2019-02-18T01:54:03.806Z,-0.80
2019-02-18T01:55:03.773Z,-0.78
2019-02-18T01:56:03.738Z,-0.83
2019-02-18T01:57:03.712Z,-0.82
2019-02-18T01:58:03.675Z,-0.80
2019-02-18T01:59:03.639Z,-0.78
2019-02-18T02:00:03.604Z,-0.76
2019-02-18T02:01:03.578Z,-0.78
2019-02-18T02:02:03.539Z,-0.82
2019-02-18T02:03:03.505Z,-0.85
2019-02-18T02:04:03.471Z,-0.86
2019-02-18T02:05:03.439Z,-0.97
2019-02-18T02:06:03.403Z,-1.02
2019-02-18T02:07:03.371Z,-1.07
2019-02-18T02:08:03.335Z,-0.92
2019-02-18T02:09:03.301Z,-0.99
2019-02-18T02:10:03.268Z,-0.94
2019-02-18T02:11:03.239Z,-0.94
2019-02-18T02:12:03.201Z,-0.94
2019-02-18T02:13:03.169Z,-0.94
2019-02-18T02:14:03.138Z,-0.98
2019-02-18T02:15:03.101Z,-0.97
2019-02-18T02:16:03.067Z,-0.94
2019-02-18T02:17:03.032Z,-1.01
2019-02-18T02:18:02.999Z,-0.89
2019-02-18T02:19:02.965Z,-0.91
2019-02-18T02:20:02.934Z,-1.02
2019-02-18T02:21:02.897Z,-1.04
2019-02-18T02:22:02.864Z,-0.98
2019-02-18T02:23:02.831Z,-1.20
2019-02-18T02:24:02.797Z,-1.20
2019-02-18T02:25:02.763Z,-1.28
2019-02-18T02:26:02.730Z,-1.25
2019-02-18T02:27:02.697Z,-1.28
2019-02-18T02:28:02.662Z,-1.27
2019-02-18T02:29:02.633Z,-1.33
2019-02-18T02:30:02.604Z,-1.27
2019-02-18T02:31:02.568Z,-1.31
2019-02-18T02:32:02.526Z,-1.23
2019-02-18T02:33:02.498Z,-1.27
2019-02-18T02:34:02.463Z,-1.20
2019-02-18T02:35:02.426Z,-1.23
2019-02-18T02:36:02.392Z,-1.25
2019-02-18T02:37:02.360Z,-1.33
2019-02-18T02:38:07.661Z,-1.34
2019-02-18T02:39:02.297Z,-1.22
2019-02-18T02:40:02.257Z,-1.20
2019-02-18T02:41:02.228Z,-1.19
2019-02-18T02:42:02.191Z,-1.19
2019-02-18T02:43:02.156Z,-1.07
2019-02-18T02:44:02.126Z,-1.09
2019-02-18T02:45:02.100Z,-1.07
2019-02-18T02:46:02.057Z,-1.01
2019-02-18T02:47:02.024Z,-1.09
2019-02-18T02:48:01.987Z,-1.22
2019-02-18T02:49:01.953Z,-1.27
2019-02-18T02:50:01.921Z,-1.25
2019-02-18T02:51:01.887Z,-1.25
2019-02-18T02:52:01.852Z,-1.31
2019-02-18T02:53:01.820Z,-1.25
2019-02-18T02:54:01.783Z,-1.27
2019-02-18T02:55:01.751Z,-1.27
2019-02-18T02:56:01.716Z,-1.20
2019-02-18T02:57:01.685Z,-1.13
2019-02-18T02:58:01.649Z,-1.16
2019-02-18T02:59:01.614Z,-1.16
2019-02-18T03:00:01.581Z,-1.10
2019-02-18T03:01:01.554Z,-1.10
2019-02-18T03:02:01.524Z,-1.15
2019-02-18T03:03:01.478Z,-1.19
2019-02-18T03:04:01.450Z,-1.28
2019-02-18T03:05:01.409Z,-1.25
2019-02-18T03:06:01.376Z,-1.28
2019-02-18T03:07:01.356Z,-1.33
2019-02-18T03:08:01.311Z,-1.55
2019-02-18T03:09:01.275Z,-1.56
2019-02-18T03:10:01.240Z,-1.54
2019-02-18T03:11:01.207Z,-1.67
2019-02-18T03:12:01.174Z,-1.62
2019-02-18T03:13:01.142Z,-1.62
2019-02-18T03:14:01.167Z,-1.56
2019-02-18T03:15:01.071Z,-1.59
2019-02-18T03:16:01.037Z,-1.58
2019-02-18T03:17:01.004Z,-1.67
2019-02-18T03:18:00.969Z,-1.76
2019-02-18T03:19:00.945Z,-1.77
2019-02-18T03:20:00.908Z,-1.72
2019-02-18T03:21:00.867Z,-1.69
2019-02-18T03:22:00.834Z,-1.55
2019-02-18T03:23:00.800Z,-1.59
2019-02-18T03:24:00.768Z,-1.51
2019-02-18T03:25:00.731Z,-1.41
2019-02-18T03:26:00.699Z,-1.35
2019-02-18T03:27:00.666Z,-1.33
2019-02-18T03:28:00.632Z,-1.23
2019-02-18T03:29:00.598Z,-1.17
2019-02-18T03:30:00.563Z,-1.20
2019-02-18T03:31:00.571Z,-1.25
2019-02-18T03:32:00.501Z,-1.19
2019-02-18T03:33:00.674Z,-1.31
2019-02-18T03:34:00.427Z,-1.28
2019-02-18T03:35:00.832Z,-1.33
2019-02-18T03:36:00.360Z,-1.28
2019-02-18T03:37:00.324Z,-1.30
2019-02-18T03:38:00.290Z,-1.31
2019-02-18T03:39:00.255Z,-1.31
2019-02-18T03:40:00.298Z,-1.28
2019-02-18T03:41:03.245Z,-1.48
2019-02-18T03:42:00.152Z,-1.56
2019-02-18T03:43:00.119Z,-1.56
2019-02-18T03:44:00.084Z,-1.52
2019-02-18T03:45:00.095Z,-1.62
2019-02-18T03:46:00.016Z,-1.64
2019-02-18T03:46:59.985Z,-1.56
2019-02-18T03:47:59.948Z,-1.51
2019-02-18T03:48:59.914Z,-1.49
2019-02-18T03:49:59.881Z,-1.55
2019-02-18T03:50:59.848Z,-1.51
2019-02-18T03:51:59.811Z,-1.56
2019-02-18T03:52:59.778Z,-1.66
2019-02-18T03:53:59.744Z,-1.64
2019-02-18T03:54:59.718Z,-1.72
2019-02-18T03:55:59.680Z,-1.73
2019-02-18T03:56:59.641Z,-1.79
2019-02-18T03:57:59.607Z,-1.72
2019-02-18T03:58:59.574Z,-1.72
2019-02-18T03:59:59.541Z,-1.72
2019-02-18T04:00:59.506Z,-1.64
2019-02-18T04:01:59.473Z,-1.59
2019-02-18T04:02:59.448Z,-1.56
2019-02-18T04:03:59.405Z,-1.46
2019-02-18T04:04:59.367Z,-1.43
2019-02-18T04:05:59.343Z,-1.51
2019-02-18T04:06:59.304Z,-1.58
2019-02-18T04:07:59.268Z,-1.52
2019-02-18T04:08:59.230Z,-1.54
2019-02-18T04:09:59.198Z,-1.70
2019-02-18T04:10:59.163Z,-1.74
2019-02-18T04:11:59.129Z,-1.61
2019-02-18T04:12:59.094Z,-1.54
2019-02-18T04:13:59.059Z,-1.58
2019-02-18T04:14:59.027Z,-1.55
2019-02-18T04:15:58.993Z,-1.58
2019-02-18T04:16:58.961Z,-1.62
2019-02-18T04:17:58.922Z,-1.62
2019-02-18T04:18:58.892Z,-1.66
2019-02-18T04:19:58.871Z,-1.79
2019-02-18T04:20:58.821Z,-1.76
2019-02-18T04:21:58.786Z,-1.64
2019-02-18T04:22:58.752Z,-1.70
2019-02-18T04:23:58.717Z,-1.80
2019-02-18T04:24:58.683Z,-1.85
2019-02-18T04:25:58.649Z,-1.92
2019-02-18T04:26:58.615Z,-2.02
2019-02-18T04:27:58.583Z,-2.08
2019-02-18T04:28:58.548Z,-2.06
2019-02-18T04:29:58.513Z,-2.12
2019-02-18T04:30:58.478Z,-2.24
2019-02-18T04:31:58.444Z,-2.24
2019-02-18T04:32:58.411Z,-2.21
2019-02-18T04:33:58.376Z,-2.21
2019-02-18T04:34:58.341Z,-2.26
2019-02-18T04:35:58.308Z,-2.27
2019-02-18T04:36:58.272Z,-2.29
2019-02-18T04:37:58.239Z,-2.27
2019-02-18T04:38:58.205Z,-2.29
2019-02-18T04:39:58.171Z,-2.27
2019-02-18T04:40:58.158Z,-2.29
2019-02-18T04:41:58.104Z,-2.21
2019-02-18T04:42:58.069Z,-2.08
2019-02-18T04:43:58.034Z,-2.06
2019-02-18T04:44:58.000Z,-2.03
2019-02-18T04:45:57.964Z,-2.03
2019-02-18T04:46:57.931Z,-2.03
2019-02-18T04:47:57.897Z,-2.05
2019-02-18T04:48:57.868Z,-2.08
2019-02-18T04:49:57.826Z,-2.12
2019-02-18T04:50:57.793Z,-2.15
2019-02-18T04:51:57.758Z,-2.15
2019-02-18T04:52:57.725Z,-2.15
2019-02-18T04:53:57.695Z,-2.08
2019-02-18T04:54:57.658Z,-2.16
2019-02-18T04:55:57.623Z,-2.16
2019-02-18T04:56:57.587Z,-2.26
2019-02-18T04:57:57.573Z,-2.24
2019-02-18T04:58:57.524Z,-2.24
2019-02-18T04:59:57.484Z,-2.21
2019-02-18T05:00:57.451Z,-2.24
2019-02-18T05:01:57.415Z,-2.26
2019-02-18T05:02:57.383Z,-2.26
2019-02-18T05:03:57.346Z,-2.35
2019-02-18T05:04:57.312Z,-2.37
2019-02-18T05:05:57.951Z,-2.43
2019-02-18T05:06:57.244Z,-2.43
2019-02-18T05:07:57.210Z,-2.50
2019-02-18T05:09:05.019Z,-2.32
2019-02-18T05:09:57.143Z,-2.35
2019-02-18T05:10:57.105Z,-2.30
2019-02-18T05:11:57.073Z,-2.29
2019-02-18T05:12:57.040Z,-2.24
2019-02-18T05:13:57.003Z,-2.34
2019-02-18T05:14:56.969Z,-2.24
2019-02-18T05:15:56.938Z,-2.24
2019-02-18T05:16:56.899Z,-2.24
2019-02-18T05:17:56.869Z,-2.35
2019-02-18T05:18:56.832Z,-2.21
2019-02-18T05:19:56.798Z,-2.23
2019-02-18T05:20:56.762Z,-2.30
2019-02-18T05:21:56.732Z,-2.21
2019-02-18T05:22:56.694Z,-2.23
2019-02-18T05:23:56.660Z,-2.26
2019-02-18T05:24:56.642Z,-2.27
2019-02-18T05:25:56.590Z,-2.30
2019-02-18T05:26:56.557Z,-2.27
2019-02-18T05:27:56.526Z,-2.24
2019-02-18T05:28:56.489Z,-2.26
2019-02-18T05:29:56.452Z,-1.91
2019-02-18T05:30:56.419Z,-1.82
2019-02-18T05:31:56.383Z,-1.82
2019-02-18T05:32:56.349Z,-1.87
2019-02-18T05:33:56.315Z,-1.84
2019-02-18T05:34:56.280Z,-1.88
2019-02-18T05:35:56.247Z,-1.98
2019-02-18T05:36:56.214Z,-2.08
2019-02-18T05:37:56.178Z,-2.10
2019-02-18T05:38:56.145Z,-2.15
2019-02-18T05:39:56.111Z,-2.23
2019-02-18T05:40:56.073Z,-2.24
2019-02-18T05:41:56.038Z,-2.27
2019-02-18T05:42:56.004Z,-2.32
2019-02-18T05:43:56.031Z,-2.29
2019-02-18T05:44:55.936Z,-2.29
2019-02-18T05:45:55.901Z,-2.29
2019-02-18T05:46:55.866Z,-2.39
2019-02-18T05:47:55.831Z,-2.32
2019-02-18T05:48:55.796Z,-2.45
2019-02-18T05:49:55.762Z,-2.49
2019-02-18T05:50:55.726Z,-2.46
2019-02-18T05:51:55.694Z,-2.50
2019-02-18T05:52:55.658Z,-2.45
2019-02-18T05:53:55.625Z,-2.46
2019-02-18T05:54:55.590Z,-2.37
2019-02-18T05:55:55.555Z,-2.42
2019-02-18T05:56:55.526Z,-2.45
2019-02-18T05:57:55.485Z,-2.46
2019-02-18T05:58:55.454Z,-2.48
2019-02-18T05:59:55.422Z,-2.29
2019-02-18T06:00:55.388Z,-2.32
2019-02-18T06:01:55.348Z,-2.24
2019-02-18T06:02:55.313Z,-2.18
2019-02-18T06:03:55.280Z,-2.20
2019-02-18T06:04:55.244Z,-2.26
2019-02-18T06:05:55.218Z,-2.27
2019-02-18T06:06:55.176Z,-2.15
2019-02-18T06:07:55.139Z,-2.20
2019-02-18T06:08:55.108Z,-2.18
2019-02-18T06:09:55.071Z,-2.21
2019-02-18T06:10:55.038Z,-2.27
2019-02-18T06:11:55.002Z,-2.21
2019-02-18T06:12:54.965Z,-2.32
2019-02-18T06:13:54.931Z,-2.35
2019-02-18T06:14:54.897Z,-2.32
2019-02-18T06:15:54.861Z,-2.45
2019-02-18T06:16:54.827Z,-2.52
2019-02-18T06:17:54.792Z,-2.48
2019-02-18T06:18:54.762Z,-2.48
2019-02-18T06:19:54.724Z,-2.42
2019-02-18T06:20:54.693Z,-2.32
2019-02-18T06:21:54.654Z,-2.23
2019-02-18T06:22:54.629Z,-2.16
2019-02-18T06:23:54.584Z,-2.20
2019-02-18T06:24:54.552Z,-2.18
2019-02-18T06:25:54.516Z,-2.03
2019-02-18T06:26:54.480Z,-2.08
2019-02-18T06:27:54.449Z,-2.05
2019-02-18T06:28:54.412Z,-2.05
2019-02-18T06:29:54.376Z,-2.02
2019-02-18T06:30:55.043Z,-2.05
2019-02-18T06:31:54.310Z,-2.09
2019-02-18T06:32:54.276Z,-2.06
2019-02-18T06:33:54.238Z,-2.03
2019-02-18T06:34:54.203Z,-2.08
2019-02-18T06:35:54.168Z,-2.03
2019-02-18T06:36:54.136Z,-2.18
2019-02-18T06:37:54.099Z,-2.10
2019-02-18T06:38:54.064Z,-2.08
2019-02-18T06:39:54.031Z,-2.15
2019-02-18T06:40:53.997Z,-2.06
2019-02-18T06:41:53.961Z,-2.10
2019-02-18T06:42:53.925Z,-2.05
2019-02-18T06:43:53.891Z,-2.03
2019-02-18T06:44:53.856Z,-2.05
2019-02-18T06:45:53.821Z,-2.13
2019-02-18T06:46:53.788Z,-2.26
2019-02-18T06:47:53.752Z,-2.12
2019-02-18T06:48:53.761Z,-2.16
2019-02-18T06:49:53.684Z,-2.15
2019-02-18T06:50:53.650Z,-2.15
2019-02-18T06:51:53.615Z,-2.08
2019-02-18T06:52:53.581Z,-2.03
2019-02-18T06:53:53.545Z,-1.97
2019-02-18T06:54:53.511Z,-1.90
2019-02-18T06:55:53.478Z,-1.77
2019-02-18T06:56:53.442Z,-1.74
2019-02-18T06:57:53.406Z,-1.59
2019-02-18T06:58:53.372Z,-1.54
2019-02-18T06:59:53.337Z,-1.43
2019-02-18T07:00:53.304Z,-1.34
2019-02-18T07:01:53.270Z,-1.19
2019-02-18T07:02:53.236Z,-1.02
2019-02-18T07:03:53.202Z,-0.89
2019-02-18T07:04:53.165Z,-0.91
2019-02-18T07:05:53.132Z,-0.82
2019-02-18T07:06:53.100Z,-0.75
2019-02-18T07:07:53.063Z,-0.58
2019-02-18T07:08:53.030Z,-0.39
2019-02-18T07:09:52.995Z,-0.28
2019-02-18T07:10:52.961Z,-0.10
2019-02-18T07:11:52.930Z,0.08
2019-02-18T07:12:52.893Z,0.31
2019-02-18T07:13:52.860Z,0.49
2019-02-18T07:14:52.826Z,0.42
2019-02-18T07:15:52.797Z,0.55
2019-02-18T07:16:52.759Z,0.66
2019-02-18T07:17:52.726Z,0.80
2019-02-18T07:18:52.692Z,0.78
2019-02-18T07:19:52.660Z,0.83
2019-02-18T07:20:52.627Z,0.94
2019-02-18T07:21:52.596Z,1.08
2019-02-18T07:22:52.559Z,1.16
2019-02-18T07:23:52.529Z,1.36
2019-02-18T07:24:52.493Z,1.58
2019-02-18T07:25:52.460Z,1.62
2019-02-18T07:26:52.427Z,1.65
2019-02-18T07:27:52.392Z,1.83
2019-02-18T07:28:52.361Z,2.10
2019-02-18T07:29:52.330Z,2.09
2019-02-18T07:30:52.296Z,1.93
2019-02-18T07:31:52.263Z,1.87
2019-02-18T07:32:52.230Z,1.72
2019-02-18T07:33:52.198Z,1.84
2019-02-18T07:34:52.171Z,1.95
2019-02-18T07:35:52.135Z,2.06
2019-02-18T07:36:52.106Z,2.45
2019-02-18T07:37:52.073Z,2.72
2019-02-18T07:38:52.037Z,2.97
2019-02-18T07:40:01.126Z,3.31
2019-02-18T07:40:51.976Z,3.52
2019-02-18T07:41:51.941Z,3.86
2019-02-18T07:42:51.908Z,4.06
2019-02-18T07:43:51.878Z,4.06
2019-02-18T07:44:51.845Z,4.45
2019-02-18T07:45:51.814Z,4.73
2019-02-18T07:46:51.785Z,5.02
2019-02-18T07:47:51.753Z,5.27
2019-02-18T07:48:51.731Z,5.27
2019-02-18T07:49:51.694Z,5.25
2019-02-18T07:50:51.660Z,5.17
2019-02-18T07:51:51.632Z,5.22
2019-02-18T07:52:51.600Z,5.17
2019-02-18T07:53:51.569Z,5.13
2019-02-18T07:54:51.540Z,5.21
2019-02-18T07:55:51.509Z,5.28
2019-02-18T07:56:51.479Z,5.42
2019-02-18T07:57:51.449Z,5.42
2019-02-18T07:58:51.420Z,5.68
2019-02-18T07:59:51.396Z,5.97
2019-02-18T08:00:51.359Z,6.19
2019-02-18T08:01:51.330Z,6.41
2019-02-18T08:02:51.302Z,6.88
2019-02-18T08:03:51.272Z,6.97
2019-02-18T08:04:51.243Z,6.97
2019-02-18T08:05:51.216Z,7.15
2019-02-18T08:06:51.185Z,7.27
2019-02-18T08:07:51.159Z,7.27
2019-02-18T08:08:51.131Z,7.30
2019-02-18T08:09:51.103Z,7.35
2019-02-18T08:10:51.073Z,7.52
2019-02-18T08:11:51.043Z,7.46
2019-02-18T08:12:51.017Z,7.43
2019-02-18T08:13:51.004Z,7.46
2019-02-18T08:14:50.959Z,7.39
2019-02-18T08:15:50.931Z,7.30
2019-02-18T08:16:50.904Z,7.42
2019-02-18T08:17:50.876Z,7.53
2019-02-18T08:18:50.849Z,7.79
2019-02-18T08:19:50.823Z,8.00
2019-02-18T08:20:50.793Z,8.16
2019-02-18T08:21:50.770Z,8.50
2019-02-18T08:22:50.741Z,8.83
2019-02-18T08:23:59.674Z,9.15
2019-02-18T08:24:50.685Z,9.29
2019-02-18T08:25:50.657Z,9.43
2019-02-18T08:26:50.632Z,9.57
2019-02-18T08:27:50.607Z,10.14
2019-02-18T08:28:50.578Z,10.55
2019-02-18T08:29:50.553Z,10.88
2019-02-18T08:30:50.525Z,11.07
2019-02-18T08:31:50.499Z,11.06
2019-02-18T08:32:50.477Z,10.92
2019-02-18T08:33:50.447Z,10.99
2019-02-18T08:34:50.422Z,11.03
2019-02-18T08:35:50.396Z,10.97
2019-02-18T08:36:50.370Z,11.00
2019-02-18T08:37:50.345Z,10.99
2019-02-18T08:38:50.319Z,10.73
2019-02-18T08:39:50.293Z,10.63
2019-02-18T08:40:50.268Z,10.26
2019-02-18T08:41:50.246Z,10.18
2019-02-18T08:42:50.217Z,10.23
2019-02-18T08:43:50.194Z,10.70
2019-02-18T08:44:50.167Z,10.96
2019-02-18T08:45:50.140Z,11.22
2019-02-18T08:46:50.118Z,11.39
2019-02-18T08:47:50.091Z,11.67
2019-02-18T08:48:50.065Z,11.98
2019-02-18T08:49:50.040Z,11.99
2019-02-18T08:50:50.015Z,12.16
2019-02-18T08:51:49.992Z,12.20
2019-02-18T08:52:49.965Z,12.46
2019-02-18T08:53:49.947Z,12.56
2019-02-18T08:54:56.256Z,12.39
2019-02-18T08:55:49.895Z,11.99
2019-02-18T08:56:49.868Z,11.95
2019-02-18T08:57:49.844Z,11.58
2019-02-18T08:58:49.825Z,11.21
2019-02-18T08:59:49.795Z,11.54
2019-02-18T09:00:49.769Z,11.67
2019-02-18T09:01:49.745Z,11.78
2019-02-18T09:02:49.723Z,11.83
2019-02-18T09:03:49.697Z,12.07
2019-02-18T09:04:49.673Z,12.45
2019-02-18T09:05:49.649Z,12.78
2019-02-18T09:06:49.626Z,12.83
2019-02-18T09:07:49.602Z,12.70
2019-02-18T09:08:49.577Z,13.01
2019-02-18T09:09:51.289Z,13.51
2019-02-18T09:10:49.528Z,13.77
2019-02-18T09:11:49.504Z,14.07
2019-02-18T09:12:49.480Z,14.15
2019-02-18T09:13:49.456Z,14.39
2019-02-18T09:14:49.433Z,14.45
2019-02-18T09:15:59.457Z,14.50
2019-02-18T09:16:49.385Z,14.77
2019-02-18T09:17:49.363Z,14.84
2019-02-18T09:18:49.340Z,14.46
2019-02-18T09:19:49.316Z,14.52
2019-02-18T09:20:49.294Z,14.42
2019-02-18T09:21:49.272Z,14.10
2019-02-18T09:22:49.248Z,14.18
2019-02-18T09:23:49.224Z,14.52
2019-02-18T09:24:49.201Z,14.60
2019-02-18T09:25:49.181Z,14.98
2019-02-18T09:26:49.157Z,14.80
2019-02-18T09:27:49.132Z,14.98
2019-02-18T09:28:49.110Z,15.27
2019-02-18T09:29:49.093Z,15.28
2019-02-18T09:30:49.066Z,14.88
2019-02-18T09:31:49.042Z,14.92
2019-02-18T09:32:49.024Z,15.02
2019-02-18T09:33:49.001Z,15.03
2019-02-18T09:34:53.279Z,15.11
2019-02-18T09:35:48.955Z,14.64
2019-02-18T09:36:48.931Z,14.91
2019-02-18T09:37:48.909Z,15.01
2019-02-18T09:38:48.887Z,15.71
2019-02-18T09:39:48.864Z,15.76
2019-02-18T09:40:51.413Z,15.93
2019-02-18T09:41:48.821Z,16.39
2019-02-18T09:42:48.800Z,16.88
2019-02-18T09:43:48.777Z,17.19
2019-02-18T09:44:48.758Z,17.08
2019-02-18T09:45:48.735Z,17.22
2019-02-18T09:46:48.717Z,17.58
2019-02-18T09:47:48.692Z,18.02
2019-02-18T09:48:48.671Z,18.27
2019-02-18T09:49:48.652Z,18.62
2019-02-18T09:50:48.628Z,18.47
2019-02-18T09:51:48.607Z,18.54
2019-02-18T09:52:48.585Z,18.65
2019-02-18T09:53:48.564Z,18.95
2019-02-18T09:54:48.545Z,19.08
2019-02-18T09:55:48.527Z,19.23
2019-02-18T09:56:48.504Z,19.02
2019-02-18T09:57:48.481Z,18.87
2019-02-18T09:58:50.142Z,19.06
2019-02-18T09:59:48.441Z,19.06
2019-02-18T10:00:48.420Z,19.50
2019-02-18T10:01:48.400Z,19.69
2019-02-18T10:02:48.383Z,20.11
2019-02-18T10:03:48.360Z,20.16
2019-02-18T10:04:48.338Z,20.33
2019-02-18T10:05:48.319Z,19.88
2019-02-18T10:06:48.299Z,19.73
2019-02-18T10:07:48.279Z,19.94
2019-02-18T10:08:48.258Z,19.77
2019-02-18T10:09:48.238Z,19.58
2019-02-18T10:10:55.459Z,18.94
2019-02-18T10:11:48.199Z,19.04
2019-02-18T10:12:48.182Z,18.88
2019-02-18T10:13:48.158Z,18.73
2019-02-18T10:14:48.139Z,19.06
2019-02-18T10:15:48.117Z,19.50
2019-02-18T10:16:48.098Z,20.06
2019-02-18T10:17:48.080Z,20.35
2019-02-18T10:18:48.060Z,20.74
2019-02-18T10:19:48.040Z,20.73
2019-02-18T10:20:48.019Z,20.89
2019-02-18T10:21:48.001Z,21.06
2019-02-18T10:22:47.983Z,20.06
2019-02-18T10:23:47.961Z,19.58
2019-02-18T10:24:51.004Z,19.00
2019-02-18T10:25:47.922Z,18.67
2019-02-18T10:26:47.902Z,18.69
2019-02-18T10:27:47.881Z,19.31
2019-02-18T10:28:47.862Z,19.95
2019-02-18T10:29:47.844Z,20.51
2019-02-18T10:30:47.823Z,20.67
2019-02-18T10:31:47.803Z,20.82
2019-02-18T10:32:47.784Z,20.99
2019-02-18T10:33:47.764Z,21.17
2019-02-18T10:34:47.747Z,21.06
2019-02-18T10:35:47.725Z,21.06
2019-02-18T10:36:47.705Z,21.06
2019-02-18T10:37:54.801Z,20.77
2019-02-18T10:38:47.670Z,20.74
2019-02-18T10:39:47.646Z,19.68
2019-02-18T10:40:47.627Z,20.17
2019-02-18T10:41:47.610Z,20.57
2019-02-18T10:42:47.589Z,20.58
2019-02-18T10:43:47.569Z,19.83
2019-02-18T10:44:47.549Z,19.23
2019-02-18T10:45:47.532Z,19.26
2019-02-18T10:46:47.514Z,19.46
2019-02-18T10:47:47.490Z,19.29
2019-02-18T10:48:47.472Z,19.58
2019-02-18T10:49:47.450Z,19.44
2019-02-18T10:50:47.434Z,19.40
2019-02-18T10:51:47.411Z,19.19
2019-02-18T10:52:47.391Z,18.94
2019-02-18T10:53:47.375Z,19.02
2019-02-18T10:54:49.527Z,19.13
2019-02-18T10:55:47.335Z,18.73
2019-02-18T10:56:47.316Z,18.76
2019-02-18T10:57:47.292Z,19.00
2019-02-18T10:58:47.272Z,19.22
2019-02-18T10:59:47.253Z,19.80
2019-02-18T11:00:47.232Z,20.28
2019-02-18T11:01:47.212Z,20.67
2019-02-18T11:02:47.193Z,20.89
2019-02-18T11:03:47.173Z,21.21
2019-02-18T11:04:47.152Z,21.59
2019-02-18T11:05:47.132Z,22.22
2019-02-18T11:06:47.112Z,22.82
2019-02-18T11:07:47.091Z,22.76
2019-02-18T11:08:47.070Z,22.64
2019-02-18T11:09:47.052Z,22.10
2019-02-18T11:10:47.034Z,21.88
2019-02-18T11:11:47.016Z,21.62
2019-02-18T11:12:47.758Z,21.13
2019-02-18T11:13:46.974Z,20.88
2019-02-18T11:14:46.953Z,20.59
2019-02-18T11:15:46.932Z,20.70
2019-02-18T11:16:46.912Z,20.39
2019-02-18T11:17:46.893Z,20.79
2019-02-18T11:18:46.875Z,21.25
2019-02-18T11:19:46.852Z,21.62
2019-02-18T11:20:46.833Z,22.00
2019-02-18T11:21:46.814Z,21.47
2019-02-18T11:22:46.797Z,21.56
2019-02-18T11:23:46.772Z,21.68
2019-02-18T11:24:46.756Z,22.22
2019-02-18T11:25:46.734Z,22.60
2019-02-18T11:26:46.714Z,23.02
2019-02-18T11:27:46.696Z,23.48
2019-02-18T11:28:46.675Z,23.17
2019-02-18T11:29:46.655Z,22.42
2019-02-18T11:30:46.642Z,22.15
2019-02-18T11:31:46.615Z,21.71
2019-02-18T11:32:46.597Z,21.98
2019-02-18T11:33:46.576Z,22.43
2019-02-18T11:34:46.557Z,22.97
2019-02-18T11:35:46.539Z,23.10
2019-02-18T11:36:46.518Z,23.55
2019-02-18T11:37:46.500Z,22.98
2019-02-18T11:38:46.481Z,22.18
2019-02-18T11:39:46.460Z,21.38
2019-02-18T11:40:46.441Z,21.54
2019-02-18T11:41:46.428Z,21.88
2019-02-18T11:42:46.402Z,20.51
2019-02-18T11:43:46.385Z,20.39
2019-02-18T11:44:46.363Z,20.58
2019-02-18T11:45:46.343Z,21.28
2019-02-18T11:46:46.324Z,21.40
2019-02-18T11:47:46.303Z,21.50
2019-02-18T11:48:46.284Z,21.91
2019-02-18T11:49:46.266Z,20.59
2019-02-18T11:50:46.246Z,20.47
2019-02-18T11:51:46.227Z,20.61
2019-02-18T11:52:46.211Z,20.54
2019-02-18T11:53:46.187Z,20.35
2019-02-18T11:54:46.180Z,20.41
2019-02-18T11:55:46.145Z,20.77
2019-02-18T11:56:46.131Z,20.94
2019-02-18T11:57:46.106Z,21.28
2019-02-18T11:58:46.085Z,21.61
2019-02-18T11:59:46.065Z,22.00
2019-02-18T12:00:46.046Z,22.15
2019-02-18T12:01:46.025Z,21.86
2019-02-18T12:02:46.006Z,21.19
2019-02-18T12:03:45.986Z,20.79
2019-02-18T12:04:45.966Z,20.16
2019-02-18T12:05:45.945Z,20.57
2019-02-18T12:06:45.926Z,20.57
2019-02-18T12:07:45.905Z,20.73
2019-02-18T12:08:45.884Z,20.95
2019-02-18T12:09:45.865Z,21.37
2019-02-18T12:10:45.847Z,21.82
2019-02-18T12:11:45.824Z,22.03
2019-02-18T12:12:45.803Z,22.33
2019-02-18T12:13:45.783Z,22.35
2019-02-18T12:14:45.763Z,22.17
2019-02-18T12:15:45.742Z,21.62
2019-02-18T12:16:45.722Z,21.07
2019-02-18T12:17:45.701Z,21.06
2019-02-18T12:18:45.681Z,21.04
2019-02-18T12:19:45.663Z,20.73
2019-02-18T12:20:45.641Z,20.77
2019-02-18T12:21:45.620Z,21.09
2019-02-18T12:22:45.600Z,21.35
2019-02-18T12:23:45.579Z,21.61
2019-02-18T12:24:45.559Z,21.44
2019-02-18T12:25:45.539Z,21.43
2019-02-18T12:26:45.519Z,20.73
2019-02-18T12:27:45.497Z,21.17
2019-02-18T12:28:45.484Z,21.24
2019-02-18T12:29:45.457Z,21.10
2019-02-18T12:30:45.437Z,20.61
2019-02-18T12:31:45.415Z,20.92
2019-02-18T12:32:45.394Z,20.73
2019-02-18T12:33:45.375Z,21.06
2019-02-18T12:34:45.354Z,21.53
2019-02-18T12:35:45.333Z,21.88
2019-02-18T12:36:45.314Z,22.31
2019-02-18T12:37:54.690Z,21.99
2019-02-18T12:38:45.272Z,21.72
2019-02-18T12:39:45.250Z,21.25
2019-02-18T12:40:45.231Z,21.14
2019-02-18T12:41:48.570Z,21.16
2019-02-18T12:42:45.191Z,20.79
2019-02-18T12:43:45.169Z,21.07
2019-02-18T12:44:45.149Z,21.31
2019-02-18T12:45:45.129Z,21.62
2019-02-18T12:46:45.108Z,21.43
2019-02-18T12:47:45.086Z,20.84
2019-02-18T12:48:45.067Z,21.13
2019-02-18T12:49:45.046Z,21.13
2019-02-18T12:50:45.026Z,20.79
2019-02-18T12:51:45.006Z,20.92
2019-02-18T12:52:44.985Z,20.80
2019-02-18T12:53:46.280Z,21.12
2019-02-18T12:54:44.945Z,20.97